Jackson Summit, Pennsylvania
Current Conditions -  °F | °C
As of 3:53 PM on Monday 24 Nov 2014 (Local Time) from KELM Reporting Station
Light Rain Light Rain  
Wind Chill: 20°   Ceiling: 6500
Heat Index: 20°   Visibility: 10mi
Dew Point: 10°   Wind: 18mph
Humidity: 52%   Direction: 210°SSW
Pressure: 29.41"   Gusts: 25mph
Location:  41.9565°N, 76.9857°W
Report Text: KELM 242053Z 21016G22KT 10SM -RA BKN065 OVC090 20/10 A2941 RMK AO2 PK WND 18026/2005 RAB46 SLP956 P0000 60000 T02000100 53007
Loading
Personal Weather Stations






























Interactive Weather Map New forecast layout! Learn more

10-Day Weather Forecast

Advertisements
Track Severe Weather on mobile